Time;durP1;ratioP1;P1;durP2;ratioP2;P2;SDS_P1;SDS_P2;PMS_P1;PMS_P2;Temp;Humidity;BMP_temperature;BMP_pressure;BME280_temperature;BME280_humidity;BME280_pressure;Samples;Min_cycle;Max_cycle;Signal;HPM_P1;HPM_P2
2021/08/27 00:00:41;;;;;;;;;;;15.30;99.90;;;;;;4941512;28;20700;-87
2021/08/27 00:03:07;;;;;;;;;;;15.30;99.90;;;;;;4957229;28;19921;-87
2021/08/27 00:05:32;;;;;;;;;;;15.30;99.90;;;;;;4972934;28;19972;-87
2021/08/27 00:07:58;;;;;;;;;;;15.30;99.90;;;;;;4938675;28;20370;-87
2021/08/27 00:10:23;;;;;;;;;;;15.20;99.90;;;;;;4928869;28;19977;-87
2021/08/27 00:12:49;;;;;;;;;;;15.20;99.90;;;;;;4953176;28;19926;-88
2021/08/27 00:15:15;;;;;;;;;;;15.20;99.90;;;;;;4910201;28;19981;-87
2021/08/27 00:17:40;;;;;;;;;;;15.20;99.90;;;;;;4966204;28;19930;-87
2021/08/27 00:20:07;;;;;;;;;;;15.20;99.90;;;;;;4921832;28;19930;-87
2021/08/27 00:22:33;;;;;;;;;;;15.20;99.90;;;;;;4937682;28;19926;-87
2021/08/27 00:24:58;;;;;;;;;;;15.20;99.90;;;;;;4967502;28;20427;-87
2021/08/27 00:27:24;;;;;;;;;;;15.10;99.90;;;;;;4920751;28;19922;-87
2021/08/27 00:29:50;;;;;;;;;;;15.10;99.90;;;;;;4952806;28;19926;-87
2021/08/27 00:32:15;;;;;;;;;;;15.10;99.90;;;;;;4937813;28;19926;-87
2021/08/27 00:34:41;;;;;;;;;;;15.10;99.90;;;;;;4911921;28;20409;-88
2021/08/27 00:37:07;;;;;;;;;;;15.00;99.90;;;;;;4934930;28;19933;-87
2021/08/27 00:39:33;;;;;;;;;;;15.10;99.90;;;;;;4937004;28;19922;-87
2021/08/27 00:41:58;;;;;;;;;;;15.10;99.90;;;;;;4913394;28;20374;-87
2021/08/27 00:44:24;;;;;;;;;;;15.00;99.90;;;;;;4952793;28;19922;-87
2021/08/27 00:46:50;;;;;;;;;;;15.00;99.90;;;;;;4958274;28;19922;-88
2021/08/27 00:49:16;;;;;;;;;;;15.00;99.90;;;;;;4938158;28;19933;-87
2021/08/27 00:51:42;;;;;;;;;;;15.00;99.90;;;;;;4959549;28;19929;-87
2021/08/27 00:54:07;;;;;;;;;;;15.10;99.90;;;;;;4935674;28;19978;-88
2021/08/27 00:56:33;;;;;;;;;;;15.10;99.90;;;;;;4936165;28;19981;-87
2021/08/27 00:58:59;;;;;;;;;;;15.10;99.90;;;;;;4936410;28;19937;-87
2021/08/27 01:01:25;;;;;;;;;;;15.00;99.90;;;;;;4915030;28;19923;-87
2021/08/27 01:03:51;;;;;;;;;;;15.00;99.90;;;;;;4934907;28;19981;-87
2021/08/27 01:06:28;;;;;;;;;;;14.80;99.90;;;;;;4916079;28;20025;-87
2021/08/27 01:08:58;;;;;;;;;;;14.70;99.90;;;;;;4950641;28;19961;-87
2021/08/27 01:11:26;;;;;;;;;;;14.60;99.90;;;;;;4955495;28;19926;-87
2021/08/27 01:13:55;;;;;;;;;;;14.60;99.90;;;;;;4955422;28;19926;-87
2021/08/27 01:16:26;;;;;;;;;;;14.60;99.90;;;;;;4971012;28;19926;-87
2021/08/27 01:19:10;;;;;;;;;;;14.60;99.90;;;;;;4956391;28;20301;-88
2021/08/27 01:21:55;;;;;;;;;;;14.60;99.90;;;;;;4949470;28;19926;-87
2021/08/27 01:24:22;;;;;;;;;;;14.50;99.90;;;;;;4955924;28;20016;-87
2021/08/27 01:26:49;;;;;;;;;;;14.50;99.90;;;;;;4936981;28;19922;-87
2021/08/27 01:29:25;;;;;;;;;;;14.50;99.90;;;;;;4953706;28;19926;-87
2021/08/27 01:32:05;;;;;;;;;;;14.40;99.90;;;;;;4986697;28;19925;-87
2021/08/27 01:34:34;;;;;;;;;;;14.40;99.90;;;;;;4954644;28;19926;-87
2021/08/27 01:37:01;;;;;;;;;;;14.40;99.90;;;;;;4953588;28;19972;-87
2021/08/27 01:39:28;;;;;;;;;;;14.40;99.90;;;;;;4955300;28;19988;-87
2021/08/27 01:41:56;;;;;;;;;;;14.40;99.90;;;;;;4955002;28;19992;-87
2021/08/27 01:44:23;;;;;;;;;;;14.30;99.90;;;;;;4939899;28;19929;-87
2021/08/27 01:46:50;;;;;;;;;;;14.30;99.90;;;;;;4952059;28;19929;-87
2021/08/27 01:49:16;;;;;;;;;;;14.30;99.90;;;;;;4955868;28;19963;-87
2021/08/27 01:51:42;;;;;;;;;;;14.30;99.90;;;;;;4954503;28;19970;-87
2021/08/27 01:54:08;;;;;;;;;;;14.30;99.90;;;;;;4954463;28;20299;-87
2021/08/27 01:56:36;;;;;;;;;;;14.30;99.90;;;;;;4931883;28;19922;-87
2021/08/27 01:59:02;;;;;;;;;;;14.30;99.90;;;;;;4944076;28;19930;-87
2021/08/27 02:01:28;;;;;;;;;;;14.30;99.90;;;;;;4937683;28;19925;-86
2021/08/27 02:03:54;;;;;;;;;;;14.30;99.90;;;;;;4954965;28;19921;-87
2021/08/27 02:06:21;;;;;;;;;;;14.30;99.90;;;;;;4939560;28;19980;-87
2021/08/27 02:08:46;;;;;;;;;;;14.30;99.90;;;;;;4951579;28;20381;-87
2021/08/27 02:11:12;;;;;;;;;;;14.30;99.90;;;;;;4968321;28;19933;-87
2021/08/27 02:13:38;;;;;;;;;;;14.20;99.90;;;;;;4955056;28;20013;-87
2021/08/27 02:16:06;;;;;;;;;;;14.30;99.90;;;;;;4938690;28;19922;-87
2021/08/27 02:18:34;;;;;;;;;;;14.20;99.90;;;;;;4950037;28;19937;-87
2021/08/27 02:21:01;;;;;;;;;;;14.30;99.90;;;;;;4946613;28;19925;-87
2021/08/27 02:23:27;;;;;;;;;;;14.20;99.90;;;;;;4954024;28;19933;-87
2021/08/27 02:25:54;;;;;;;;;;;14.20;99.90;;;;;;4955358;28;19928;-87
2021/08/27 02:28:21;;;;;;;;;;;14.20;99.90;;;;;;4953435;28;19922;-87
2021/08/27 02:30:47;;;;;;;;;;;14.20;99.90;;;;;;4955894;28;19921;-87
2021/08/27 02:33:13;;;;;;;;;;;14.20;99.90;;;;;;4926979;28;19988;-87
2021/08/27 02:35:39;;;;;;;;;;;14.30;99.90;;;;;;4957538;28;20392;-87
2021/08/27 02:38:05;;;;;;;;;;;14.30;99.90;;;;;;4957467;28;19934;-87
2021/08/27 02:40:31;;;;;;;;;;;14.30;99.90;;;;;;4958386;28;21199;-87
2021/08/27 02:42:57;;;;;;;;;;;14.30;99.90;;;;;;4973975;28;19925;-87
2021/08/27 02:45:22;;;;;;;;;;;14.40;99.90;;;;;;4942606;28;20389;-87
2021/08/27 02:47:48;;;;;;;;;;;14.40;99.90;;;;;;4959161;28;20043;-87
2021/08/27 02:50:13;;;;;;;;;;;14.40;99.90;;;;;;4969363;28;19932;-87
2021/08/27 02:52:55;;;;;;;;;;;14.40;99.90;;;;;;4956019;28;20009;-87
2021/08/27 02:55:25;;;;;;;;;;;14.40;99.90;;;;;;4958600;28;20381;-87
2021/08/27 02:58:10;;;;;;;;;;;14.50;99.90;;;;;;4957447;28;20312;-87
2021/08/27 03:00:38;;;;;;;;;;;14.50;99.90;;;;;;4974505;28;20337;-87
2021/08/27 03:03:05;;;;;;;;;;;14.60;99.90;;;;;;4957127;28;20277;-87
2021/08/27 03:05:42;;;;;;;;;;;14.60;99.90;;;;;;4958514;28;20411;-88
2021/08/27 03:08:12;;;;;;;;;;;14.60;99.90;;;;;;4974124;28;19930;-87
2021/08/27 03:10:45;;;;;;;;;;;14.70;99.90;;;;;;4974239;28;20373;-87
2021/08/27 03:13:26;;;;;;;;;;;14.70;99.90;;;;;;4955944;28;19926;-87
2021/08/27 03:15:55;;;;;;;;;;;14.70;99.90;;;;;;4957622;28;19926;-87
2021/08/27 03:18:30;;;;;;;;;;;14.80;99.90;;;;;;4955494;28;20283;-87
2021/08/27 03:20:58;;;;;;;;;;;14.80;99.90;;;;;;4958552;28;19961;-87
2021/08/27 03:23:27;;;;;;;;;;;14.80;99.90;;;;;;4952962;28;19929;-87
2021/08/27 03:25:53;;;;;;;;;;;14.90;99.90;;;;;;4957995;28;19932;-87
2021/08/27 03:28:21;;;;;;;;;;;14.90;99.90;;;;;;4937030;28;19922;-87
2021/08/27 03:30:51;;;;;;;;;;;14.90;99.90;;;;;;4951756;28;19932;-87
2021/08/27 03:33:17;;;;;;;;;;;15.00;99.90;;;;;;4973090;28;19925;-87
2021/08/27 03:35:44;;;;;;;;;;;14.90;99.90;;;;;;4957175;28;19944;-87
2021/08/27 03:38:10;;;;;;;;;;;14.90;99.90;;;;;;4946986;28;20304;-87
2021/08/27 03:40:36;;;;;;;;;;;14.90;99.90;;;;;;4941438;28;20329;-87
2021/08/27 03:43:02;;;;;;;;;;;14.80;99.90;;;;;;4956609;28;19928;-87
2021/08/27 03:45:29;;;;;;;;;;;14.60;99.90;;;;;;4957067;28;19980;-88
2021/08/27 03:47:57;;;;;;;;;;;14.60;99.90;;;;;;4970584;28;19921;-87
2021/08/27 03:50:23;;;;;;;;;;;14.50;99.90;;;;;;4950444;28;19926;-87
2021/08/27 03:52:50;;;;;;;;;;;14.50;99.90;;;;;;4956720;28;20025;-87
2021/08/27 03:55:16;;;;;;;;;;;14.50;99.90;;;;;;4955955;28;20273;-88
2021/08/27 03:57:44;;;;;;;;;;;14.50;99.90;;;;;;4956982;28;19930;-88
2021/08/27 04:00:09;;;;;;;;;;;14.60;99.90;;;;;;4956898;28;19958;-88
2021/08/27 04:02:35;;;;;;;;;;;14.60;99.90;;;;;;4956882;28;19917;-88
2021/08/27 04:05:08;;;;;;;;;;;14.60;99.90;;;;;;4937101;28;19930;-88
2021/08/27 04:07:34;;;;;;;;;;;14.60;99.90;;;;;;4941527;28;20389;-88
2021/08/27 04:09:59;;;;;;;;;;;14.50;99.90;;;;;;4956415;28;19932;-88
2021/08/27 04:12:25;;;;;;;;;;;14.50;99.90;;;;;;4941336;28;20455;-87
2021/08/27 04:14:51;;;;;;;;;;;14.50;99.90;;;;;;4972115;28;19961;-87
2021/08/27 04:17:16;;;;;;;;;;;14.50;99.90;;;;;;4956983;28;20017;-87
2021/08/27 04:19:42;;;;;;;;;;;14.40;99.90;;;;;;4972988;28;19949;-87
2021/08/27 04:22:08;;;;;;;;;;;14.40;99.90;;;;;;4941260;28;20347;-88
2021/08/27 04:24:33;;;;;;;;;;;14.40;99.90;;;;;;4972785;28;20341;-87
2021/08/27 04:26:59;;;;;;;;;;;14.40;99.90;;;;;;4940409;28;20396;-87
2021/08/27 04:29:24;;;;;;;;;;;14.30;99.90;;;;;;4938014;28;20331;-88
2021/08/27 04:31:50;;;;;;;;;;;14.20;99.90;;;;;;4932570;28;19969;-87
2021/08/27 04:34:16;;;;;;;;;;;14.20;99.90;;;;;;4955509;28;19925;-87
2021/08/27 04:36:41;;;;;;;;;;;14.20;99.90;;;;;;4939863;28;20304;-87
2021/08/27 04:39:07;;;;;;;;;;;14.20;99.90;;;;;;4971880;28;19936;-87
2021/08/27 04:41:32;;;;;;;;;;;14.20;99.90;;;;;;4956264;28;20008;-88
2021/08/27 04:43:58;;;;;;;;;;;14.10;99.90;;;;;;4955886;28;20344;-87
2021/08/27 04:46:23;;;;;;;;;;;14.10;99.90;;;;;;4951059;28;19991;-87
2021/08/27 04:48:49;;;;;;;;;;;14.10;99.90;;;;;;4956220;28;20369;-87
2021/08/27 04:51:14;;;;;;;;;;;14.00;99.90;;;;;;4953805;28;19980;-87
2021/08/27 04:53:40;;;;;;;;;;;14.00;99.90;;;;;;4952578;28;19932;-88
2021/08/27 04:56:07;;;;;;;;;;;13.90;99.90;;;;;;4971516;28;20423;-87
2021/08/27 04:58:33;;;;;;;;;;;13.90;99.90;;;;;;4971680;28;19976;-88
2021/08/27 05:00:59;;;;;;;;;;;13.90;99.90;;;;;;4926696;28;19923;-88
2021/08/27 05:03:24;;;;;;;;;;;13.90;99.90;;;;;;4938510;28;19921;-86
2021/08/27 05:05:50;;;;;;;;;;;13.80;99.90;;;;;;4949379;28;19936;-87
2021/08/27 05:08:15;;;;;;;;;;;13.80;99.90;;;;;;4934463;28;20382;-88
2021/08/27 05:10:41;;;;;;;;;;;13.90;99.90;;;;;;4933527;28;19972;-87
2021/08/27 05:13:07;;;;;;;;;;;13.90;99.90;;;;;;4955630;28;19964;-88
2021/08/27 05:15:32;;;;;;;;;;;13.80;99.90;;;;;;4966551;28;20289;-87
2021/08/27 05:17:58;;;;;;;;;;;13.90;99.90;;;;;;4955644;28;20449;-88
2021/08/27 05:20:23;;;;;;;;;;;13.90;99.90;;;;;;4932992;28;19930;-87
2021/08/27 05:22:49;;;;;;;;;;;13.90;99.90;;;;;;4950640;28;19926;-87
2021/08/27 05:25:14;;;;;;;;;;;14.00;99.90;;;;;;4941542;28;19968;-88
2021/08/27 05:27:40;;;;;;;;;;;14.10;99.90;;;;;;4955676;28;19936;-88
2021/08/27 05:30:07;;;;;;;;;;;14.10;99.90;;;;;;4954975;28;20373;-88
2021/08/27 05:32:32;;;;;;;;;;;14.10;99.90;;;;;;4955824;28;19925;-88
2021/08/27 05:34:58;;;;;;;;;;;14.10;99.90;;;;;;4952662;28;19922;-87
2021/08/27 05:37:24;;;;;;;;;;;14.20;99.90;;;;;;4952666;28;19932;-88
2021/08/27 05:39:50;;;;;;;;;;;14.20;99.90;;;;;;4938395;28;19925;-88
2021/08/27 05:42:16;;;;;;;;;;;14.30;99.90;;;;;;4930772;28;19948;-88
2021/08/27 05:44:41;;;;;;;;;;;14.30;99.90;;;;;;4939377;28;20381;-88
2021/08/27 05:47:07;;;;;;;;;;;14.20;99.90;;;;;;4930257;28;19926;-88
2021/08/27 05:49:34;;;;;;;;;;;14.20;99.90;;;;;;4968245;28;19933;-88
2021/08/27 05:51:59;;;;;;;;;;;14.30;99.90;;;;;;4932496;28;20020;-88
2021/08/27 05:54:25;;;;;;;;;;;14.20;99.90;;;;;;4940166;28;20420;-88
2021/08/27 05:56:51;;;;;;;;;;;14.20;99.90;;;;;;4926687;28;20377;-88
2021/08/27 05:59:16;;;;;;;;;;;14.30;99.90;;;;;;4967237;28;20411;-88
2021/08/27 06:01:42;;;;;;;;;;;14.20;99.90;;;;;;4938352;28;20012;-88
2021/08/27 06:04:08;;;;;;;;;;;14.40;99.90;;;;;;4955836;28;19964;-88
2021/08/27 06:06:34;;;;;;;;;;;14.40;99.90;;;;;;4929461;28;19936;-88
2021/08/27 06:09:00;;;;;;;;;;;14.40;99.90;;;;;;4965820;28;20016;-88
2021/08/27 06:11:25;;;;;;;;;;;14.40;99.90;;;;;;4966079;28;20064;-87
2021/08/27 06:13:51;;;;;;;;;;;14.40;99.90;;;;;;4940445;28;19930;-88
2021/08/27 06:16:16;;;;;;;;;;;14.40;99.90;;;;;;4936268;28;19929;-88
2021/08/27 06:18:42;;;;;;;;;;;14.50;99.90;;;;;;4942562;28;19930;-88
2021/08/27 06:21:08;;;;;;;;;;;14.50;99.90;;;;;;4938394;28;19930;-88
2021/08/27 06:23:33;;;;;;;;;;;14.50;99.90;;;;;;4939261;28;19926;-88
2021/08/27 06:25:59;;;;;;;;;;;14.50;99.90;;;;;;4940219;28;19978;-88
2021/08/27 06:28:24;;;;;;;;;;;14.50;99.90;;;;;;4934175;28;20381;-88
2021/08/27 06:30:50;;;;;;;;;;;14.40;99.90;;;;;;4933013;28;19969;-88
2021/08/27 06:33:15;;;;;;;;;;;14.50;99.90;;;;;;4974761;28;20425;-89
2021/08/27 06:35:41;;;;;;;;;;;14.40;99.90;;;;;;4975223;28;19925;-88
2021/08/27 06:38:25;;;;;;;;;;;14.50;99.90;;;;;;4945978;28;19930;-89
2021/08/27 06:40:52;;;;;;;;;;;14.40;99.90;;;;;;4957912;28;19969;-88
2021/08/27 06:43:30;;;;;;;;;;;14.40;99.90;;;;;;4959631;28;19965;-88
2021/08/27 06:45:57;;;;;;;;;;;14.60;99.90;;;;;;4958410;28;20337;-88
2021/08/27 06:48:22;;;;;;;;;;;14.60;99.90;;;;;;4954051;28;19930;-88
2021/08/27 06:50:48;;;;;;;;;;;14.60;99.90;;;;;;4977161;28;19972;-88
2021/08/27 06:53:13;;;;;;;;;;;14.60;99.90;;;;;;4953660;28;19925;-87
2021/08/27 06:55:39;;;;;;;;;;;14.60;99.90;;;;;;4947449;28;19937;-88
2021/08/27 06:58:05;;;;;;;;;;;14.60;99.90;;;;;;4957512;28;19930;-88
2021/08/27 07:00:31;;;;;;;;;;;14.60;99.90;;;;;;4957226;28;19925;-88
2021/08/27 07:02:57;;;;;;;;;;;14.80;99.90;;;;;;4937249;28;19929;-87
2021/08/27 07:05:22;;;;;;;;;;;14.70;99.90;;;;;;4942369;28;19925;-87
2021/08/27 07:07:48;;;;;;;;;;;14.70;99.90;;;;;;4960351;28;19930;-87
2021/08/27 07:10:14;;;;;;;;;;;14.80;99.90;;;;;;4922901;28;19945;-86
2021/08/27 07:12:40;;;;;;;;;;;14.90;99.90;;;;;;4931555;28;19922;-88
2021/08/27 07:15:06;;;;;;;;;;;15.00;99.90;;;;;;4962349;28;20021;-89
2021/08/27 07:17:32;;;;;;;;;;;15.00;99.90;;;;;;4927525;28;20001;-91
2021/08/27 07:19:57;;;;;;;;;;;15.10;99.90;;;;;;4939722;28;19989;-90
2021/08/27 07:22:23;;;;;;;;;;;15.10;99.90;;;;;;4937907;28;20012;-88
2021/08/27 07:24:48;;;;;;;;;;;15.20;99.90;;;;;;4936335;28;19933;-88
2021/08/27 07:27:14;;;;;;;;;;;15.10;99.90;;;;;;4949863;28;20382;-89
2021/08/27 07:29:40;;;;;;;;;;;15.10;99.90;;;;;;4953663;28;19922;-87
2021/08/27 07:32:10;;;;;;;;;;;15.10;99.90;;;;;;4937927;28;20687;-88
2021/08/27 07:34:36;;;;;;;;;;;15.10;99.90;;;;;;4920515;28;19926;-88
2021/08/27 07:37:02;;;;;;;;;;;15.00;99.90;;;;;;4917029;28;19937;-88
2021/08/27 07:39:27;;;;;;;;;;;15.00;99.90;;;;;;4921615;28;19934;-88
2021/08/27 07:41:53;;;;;;;;;;;15.00;99.90;;;;;;4937078;28;19949;-88
2021/08/27 07:44:18;;;;;;;;;;;15.10;99.90;;;;;;4937825;28;19926;-88
2021/08/27 07:46:44;;;;;;;;;;;15.20;99.90;;;;;;4938443;28;19926;-90
2021/08/27 07:49:10;;;;;;;;;;;15.10;99.90;;;;;;4937062;28;20274;-88
2021/08/27 07:51:35;;;;;;;;;;;15.10;99.90;;;;;;4913551;28;19926;-90
2021/08/27 07:54:01;;;;;;;;;;;15.20;99.90;;;;;;4918114;28;19930;-92
2021/08/27 07:56:26;;;;;;;;;;;15.30;99.90;;;;;;4912715;28;19930;-96
2021/08/27 07:58:52;;;;;;;;;;;15.30;99.90;;;;;;4937894;28;20016;-89
2021/08/27 08:01:17;;;;;;;;;;;15.40;99.90;;;;;;4934827;28;20441;-92
2021/08/27 08:03:43;;;;;;;;;;;15.30;99.90;;;;;;4913883;28;19926;-86
2021/08/27 08:06:09;;;;;;;;;;;15.40;99.90;;;;;;4921989;28;19929;-86
2021/08/27 08:08:34;;;;;;;;;;;15.40;99.90;;;;;;4950953;28;19922;-87
2021/08/27 08:11:00;;;;;;;;;;;15.30;99.90;;;;;;4957014;28;19925;-85
2021/08/27 08:13:25;;;;;;;;;;;15.20;99.90;;;;;;4931107;28;19929;-85
2021/08/27 08:15:51;;;;;;;;;;;15.20;99.90;;;;;;4940555;28;19926;-85
2021/08/27 08:18:16;;;;;;;;;;;15.20;99.90;;;;;;4971109;28;19949;-86
2021/08/27 08:20:43;;;;;;;;;;;15.20;99.90;;;;;;4954986;28;19926;-86
2021/08/27 08:23:09;;;;;;;;;;;15.10;99.90;;;;;;4938969;28;20393;-86
2021/08/27 08:25:34;;;;;;;;;;;15.10;99.90;;;;;;4957303;28;19918;-87
2021/08/27 08:28:00;;;;;;;;;;;15.20;99.90;;;;;;4961028;28;19926;-87
2021/08/27 08:30:25;;;;;;;;;;;15.20;99.90;;;;;;4956716;28;19922;-87
2021/08/27 08:32:51;;;;;;;;;;;15.30;99.90;;;;;;4934924;28;19922;-86
2021/08/27 08:35:17;;;;;;;;;;;15.30;99.90;;;;;;4952949;28;20499;-86
2021/08/27 08:37:42;;;;;;;;;;;15.30;99.90;;;;;;4930794;28;19929;-86
2021/08/27 08:40:09;;;;;;;;;;;15.30;99.90;;;;;;4935039;28;19953;-86
2021/08/27 08:42:35;;;;;;;;;;;15.20;99.90;;;;;;4948436;28;20345;-86
2021/08/27 08:45:02;;;;;;;;;;;15.20;99.90;;;;;;4987198;28;19968;-86
2021/08/27 08:47:28;;;;;;;;;;;15.10;99.90;;;;;;4956264;28;19941;-86
2021/08/27 08:49:55;;;;;;;;;;;15.10;99.90;;;;;;4950622;28;19922;-85
2021/08/27 08:52:22;;;;;;;;;;;15.10;99.90;;;;;;4956087;28;19926;-85
2021/08/27 08:54:48;;;;;;;;;;;15.20;99.90;;;;;;4954202;28;19929;-85
2021/08/27 08:57:14;;;;;;;;;;;15.10;99.90;;;;;;4955809;28;20000;-85
2021/08/27 08:59:39;;;;;;;;;;;15.20;99.90;;;;;;4932480;28;20057;-85
2021/08/27 09:02:07;;;;;;;;;;;15.10;99.90;;;;;;4955486;28;19996;-85
2021/08/27 09:04:33;;;;;;;;;;;15.20;99.90;;;;;;4954361;28;19948;-85
2021/08/27 09:06:59;;;;;;;;;;;15.20;99.90;;;;;;4929167;28;20393;-85
2021/08/27 09:09:29;;;;;;;;;;;15.30;99.90;;;;;;4937707;28;19926;-86
2021/08/27 09:11:54;;;;;;;;;;;15.50;99.90;;;;;;4947115;28;19961;-85
2021/08/27 09:14:26;;;;;;;;;;;15.70;99.90;;;;;;4930342;28;19964;-85
2021/08/27 09:16:59;;;;;;;;;;;15.60;99.90;;;;;;4949086;28;19977;-86
2021/08/27 09:19:47;;;;;;;;;;;15.60;99.90;;;;;;4965640;28;19929;-86
2021/08/27 09:22:13;;;;;;;;;;;15.60;99.90;;;;;;4949359;28;20439;-85
2021/08/27 09:24:38;;;;;;;;;;;15.60;99.90;;;;;;4969315;28;19925;-85
2021/08/27 09:27:06;;;;;;;;;;;15.50;99.90;;;;;;4938562;28;19933;-85
2021/08/27 09:29:35;;;;;;;;;;;15.50;99.90;;;;;;4953861;28;19930;-85
2021/08/27 09:32:01;;;;;;;;;;;15.60;99.90;;;;;;4967462;28;19925;-85
2021/08/27 09:34:28;;;;;;;;;;;15.70;99.90;;;;;;4938109;28;19980;-87
2021/08/27 09:36:58;;;;;;;;;;;15.70;99.90;;;;;;4939348;28;19922;-87
2021/08/27 09:39:30;;;;;;;;;;;15.80;99.90;;;;;;4954804;28;19944;-87
2021/08/27 09:41:56;;;;;;;;;;;15.80;99.90;;;;;;4953884;28;19922;-85
2021/08/27 09:44:22;;;;;;;;;;;15.80;99.90;;;;;;4971195;28;20428;-85
2021/08/27 09:46:48;;;;;;;;;;;15.70;99.90;;;;;;4944650;28;19922;-85
2021/08/27 09:49:29;;;;;;;;;;;15.80;99.90;;;;;;4966043;28;20012;-89
2021/08/27 09:51:55;;;;;;;;;;;15.80;99.90;;;;;;4938435;28;19926;-90
2021/08/27 09:54:30;;;;;;;;;;;15.70;99.90;;;;;;4953721;28;20521;-89
2021/08/27 09:57:06;;;;;;;;;;;15.80;99.90;;;;;;4941801;28;19926;-88
2021/08/27 09:59:32;;;;;;;;;;;15.60;99.90;;;;;;4970258;28;19934;-88
2021/08/27 10:01:58;;;;;;;;;;;15.60;99.90;;;;;;4969282;28;20135;-89
2021/08/27 10:04:24;;;;;;;;;;;15.70;99.90;;;;;;4954167;28;20003;-88
2021/08/27 10:06:50;;;;;;;;;;;15.60;99.90;;;;;;4947230;28;19926;-89
2021/08/27 10:09:15;;;;;;;;;;;15.70;99.90;;;;;;4926488;28;19945;-87
2021/08/27 10:11:41;;;;;;;;;;;15.60;99.90;;;;;;4953959;28;19930;-86
2021/08/27 10:14:07;;;;;;;;;;;15.60;99.90;;;;;;4954458;28;19933;-85
2021/08/27 10:16:32;;;;;;;;;;;15.80;99.90;;;;;;4951161;28;19937;-85
2021/08/27 10:18:59;;;;;;;;;;;15.80;99.90;;;;;;4945205;28;20075;-86
2021/08/27 10:21:25;;;;;;;;;;;15.90;99.90;;;;;;4947189;28;19929;-87
2021/08/27 10:23:51;;;;;;;;;;;15.90;99.90;;;;;;4964449;28;19921;-86
2021/08/27 10:26:20;;;;;;;;;;;16.10;99.90;;;;;;4945573;28;20021;-89
2021/08/27 10:28:46;;;;;;;;;;;16.20;99.90;;;;;;4954724;28;19925;-90
2021/08/27 10:31:12;;;;;;;;;;;16.20;99.90;;;;;;4983718;28;19926;-90
2021/08/27 10:33:41;;;;;;;;;;;16.30;99.90;;;;;;4955188;28;19925;-91
2021/08/27 10:36:11;;;;;;;;;;;16.40;99.90;;;;;;4947844;28;20404;-94
2021/08/27 10:38:42;;;;;;;;;;;16.40;99.90;;;;;;4945417;28;20401;-91
2021/08/27 10:41:16;;;;;;;;;;;16.30;99.90;;;;;;4951462;28;19926;-90
2021/08/27 10:43:54;;;;;;;;;;;16.30;99.90;;;;;;4952852;28;19972;-87
2021/08/27 10:46:20;;;;;;;;;;;16.30;99.90;;;;;;4947809;28;19929;-91
2021/08/27 10:48:53;;;;;;;;;;;16.40;99.90;;;;;;4954330;28;19933;-93
2021/08/27 10:51:37;;;;;;;;;;;16.40;99.90;;;;;;4927851;28;19926;-91
2021/08/27 10:54:03;;;;;;;;;;;16.20;99.90;;;;;;4962116;28;19932;-86
2021/08/27 10:56:44;;;;;;;;;;;15.90;99.90;;;;;;4950086;28;19922;-89
2021/08/27 10:59:10;;;;;;;;;;;15.70;99.90;;;;;;4972305;28;19980;-90
2021/08/27 11:01:37;;;;;;;;;;;15.60;99.90;;;;;;4954790;28;19925;-89
2021/08/27 11:04:04;;;;;;;;;;;15.80;99.90;;;;;;4948204;28;20344;-90
2021/08/27 11:06:31;;;;;;;;;;;15.80;99.90;;;;;;4954882;28;20440;-90
2021/08/27 11:09:15;;;;;;;;;;;16.10;99.90;;;;;;4957841;28;20024;-89
2021/08/27 11:11:41;;;;;;;;;;;16.20;99.90;;;;;;4970175;28;19972;-90
2021/08/27 11:14:14;;;;;;;;;;;16.50;99.90;;;;;;4955743;28;19926;-92
2021/08/27 11:16:39;;;;;;;;;;;16.40;99.90;;;;;;4966168;28;19968;-93
2021/08/27 11:19:37;;;;;;;;;;;16.40;99.90;;;;;;4968845;28;19969;-92
2021/08/27 11:22:09;;;;;;;;;;;16.40;99.90;;;;;;4953175;28;20040;-91
2021/08/27 11:24:36;;;;;;;;;;;16.30;99.90;;;;;;4952460;28;20008;-93
2021/08/27 11:27:02;;;;;;;;;;;16.10;99.90;;;;;;4949591;28;19936;-91
2021/08/27 11:29:33;;;;;;;;;;;16.10;99.90;;;;;;4951985;28;19937;-93
2021/08/27 11:32:07;;;;;;;;;;;16.00;99.90;;;;;;4952421;28;19961;-93
2021/08/27 11:34:51;;;;;;;;;;;16.00;99.90;;;;;;4959010;28;19976;-92
2021/08/27 11:37:17;;;;;;;;;;;16.00;99.90;;;;;;4959794;28;19948;-92
2021/08/27 11:39:45;;;;;;;;;;;16.00;99.90;;;;;;4958636;28;19929;-91
2021/08/27 11:42:12;;;;;;;;;;;16.10;99.90;;;;;;4959053;28;19922;-91
2021/08/27 11:44:42;;;;;;;;;;;16.20;99.90;;;;;;4943503;28;19925;-92
2021/08/27 11:47:12;;;;;;;;;;;16.20;99.90;;;;;;4958746;28;19921;-92
2021/08/27 11:49:58;;;;;;;;;;;16.20;99.90;;;;;;4962645;28;19932;-93
2021/08/27 11:52:28;;;;;;;;;;;16.40;99.90;;;;;;4936864;28;19926;-93
2021/08/27 11:55:01;;;;;;;;;;;16.50;99.90;;;;;;4956570;28;20008;-92
2021/08/27 11:57:26;;;;;;;;;;;16.50;99.90;;;;;;4973305;28;20730;-93
2021/08/27 12:00:02;;;;;;;;;;;16.40;99.90;;;;;;4940831;28;19930;-92
2021/08/27 12:02:27;;;;;;;;;;;16.30;99.90;;;;;;4964952;28;19973;-92
2021/08/27 12:04:53;;;;;;;;;;;16.20;99.90;;;;;;4966380;28;19972;-92
2021/08/27 12:07:19;;;;;;;;;;;16.20;99.90;;;;;;4960639;28;20301;-92
2021/08/27 12:09:45;;;;;;;;;;;16.10;99.90;;;;;;4937240;28;20013;-92
2021/08/27 12:12:31;;;;;;;;;;;16.10;99.90;;;;;;4933648;28;19922;-92
2021/08/27 12:14:56;;;;;;;;;;;16.30;99.90;;;;;;4974017;28;20072;-93
2021/08/27 12:17:26;;;;;;;;;;;16.40;99.90;;;;;;4956184;28;20016;-93
2021/08/27 12:19:53;;;;;;;;;;;16.30;99.90;;;;;;4943665;28;19941;-93
2021/08/27 12:22:20;;;;;;;;;;;16.30;99.90;;;;;;4946788;28;19965;-92
2021/08/27 12:24:47;;;;;;;;;;;16.20;99.90;;;;;;4969051;28;20004;-92
2021/08/27 12:27:13;;;;;;;;;;;16.30;99.90;;;;;;4964905;28;20286;-92
2021/08/27 12:29:38;;;;;;;;;;;16.20;99.90;;;;;;4954325;28;19932;-93
2021/08/27 12:32:04;;;;;;;;;;;16.20;99.90;;;;;;4947275;28;19929;-93
2021/08/27 12:34:30;;;;;;;;;;;16.20;99.90;;;;;;4957044;28;19977;-93
2021/08/27 12:36:56;;;;;;;;;;;16.20;99.90;;;;;;4940342;28;20910;-92
2021/08/27 12:39:21;;;;;;;;;;;16.30;99.90;;;;;;4950551;28;19937;-92
2021/08/27 12:41:47;;;;;;;;;;;16.40;99.90;;;;;;4956350;28;19936;-93
2021/08/27 12:44:13;;;;;;;;;;;16.40;99.90;;;;;;4952351;28;19926;-92
2021/08/27 12:46:45;;;;;;;;;;;16.40;99.90;;;;;;4949568;28;20008;-91
2021/08/27 12:49:10;;;;;;;;;;;16.30;99.90;;;;;;4965178;28;20404;-91
2021/08/27 12:51:38;;;;;;;;;;;16.20;99.90;;;;;;4951859;28;20036;-89
2021/08/27 12:54:04;;;;;;;;;;;16.20;99.90;;;;;;4968391;28;19926;-91
2021/08/27 12:56:29;;;;;;;;;;;16.20;99.90;;;;;;4947215;28;19933;-90
2021/08/27 12:58:55;;;;;;;;;;;16.20;99.90;;;;;;4952380;28;19934;-91
2021/08/27 13:01:23;;;;;;;;;;;16.30;99.90;;;;;;4970877;28;20484;-91
2021/08/27 13:03:49;;;;;;;;;;;16.40;99.90;;;;;;4965294;28;19932;-92
2021/08/27 13:06:51;;;;;;;;;;;16.50;99.90;;;;;;4950833;28;19930;-91
2021/08/27 13:09:19;;;;;;;;;;;16.50;99.90;;;;;;4909547;28;20347;-91
2021/08/27 13:11:44;;;;;;;;;;;16.60;99.90;;;;;;4951481;28;19948;-92
2021/08/27 13:14:16;;;;;;;;;;;16.60;99.90;;;;;;4971218;28;20380;-91
2021/08/27 13:16:52;;;;;;;;;;;16.50;99.90;;;;;;4951677;28;20179;-91
2021/08/27 13:19:18;;;;;;;;;;;16.40;99.90;;;;;;4967662;28;19934;-91
2021/08/27 13:21:43;;;;;;;;;;;16.30;99.90;;;;;;4968163;28;19922;-91
2021/08/27 13:24:10;;;;;;;;;;;16.40;99.90;;;;;;4967694;28;19989;-90
2021/08/27 13:26:37;;;;;;;;;;;16.40;99.90;;;;;;4966292;28;19926;-92
2021/08/27 13:29:03;;;;;;;;;;;16.40;99.90;;;;;;4950280;28;20393;-91
2021/08/27 13:31:29;;;;;;;;;;;16.40;99.90;;;;;;4951301;28;19987;-90
2021/08/27 13:33:54;;;;;;;;;;;16.30;99.90;;;;;;4946704;28;20389;-92
2021/08/27 13:36:20;;;;;;;;;;;16.30;99.90;;;;;;4966320;28;20020;-91
2021/08/27 13:38:47;;;;;;;;;;;16.30;99.90;;;;;;4935223;28;20021;-92
2021/08/27 13:41:12;;;;;;;;;;;16.20;99.90;;;;;;4951932;28;19957;-91
2021/08/27 13:43:38;;;;;;;;;;;16.30;99.90;;;;;;4940450;28;19953;-91
2021/08/27 13:46:04;;;;;;;;;;;16.50;99.90;;;;;;4953871;28;19926;-93
2021/08/27 13:48:29;;;;;;;;;;;16.60;99.90;;;;;;4972397;28;19926;-91
2021/08/27 13:50:55;;;;;;;;;;;16.80;99.90;;;;;;4937082;28;19969;-91
2021/08/27 13:53:20;;;;;;;;;;;16.80;99.90;;;;;;4956146;28;19945;-91
2021/08/27 13:55:46;;;;;;;;;;;16.80;99.90;;;;;;4939072;28;19926;-91
2021/08/27 13:58:12;;;;;;;;;;;16.80;99.90;;;;;;4951471;28;19930;-91
2021/08/27 14:00:37;;;;;;;;;;;16.80;99.90;;;;;;4937640;28;19929;-91
2021/08/27 14:03:03;;;;;;;;;;;17.00;99.90;;;;;;4950577;28;19932;-92
2021/08/27 14:05:29;;;;;;;;;;;17.10;99.90;;;;;;4955521;28;20005;-91
2021/08/27 14:07:54;;;;;;;;;;;17.10;99.90;;;;;;4952701;28;19929;-92
2021/08/27 14:10:20;;;;;;;;;;;17.20;99.90;;;;;;4964717;28;20013;-92
2021/08/27 14:12:46;;;;;;;;;;;17.20;99.90;;;;;;4953453;28;19925;-91
2021/08/27 14:15:12;;;;;;;;;;;17.20;99.90;;;;;;4945446;28;20373;-91
2021/08/27 14:17:38;;;;;;;;;;;17.30;99.90;;;;;;4949084;28;19926;-91